Gaspé Airport, Quebec

Past 24 Hour Conditions

Date / Time
(EDT)
Conditions Temp
(°F)
Humidity
(%)
Dew Point
(°F)
Wind
(mph)
Pressure
(inches)
Visibility
(miles)
24 May 2015
19:00 Mostly Cloudy 59 23 21 WNW 9 29.9 15
18:00 Mostly Cloudy 61 22 22 NW 7 29.8 15
17:00 Mostly Cloudy 63 18 19 WNW 18 gust 26 29.8 15
16:00 Mostly Cloudy 64 20 23 WNW 17 gust 22 29.8 15
15:00 Mostly Cloudy 65   22 25 W 17 gust 27 29.8 15
14:00 Mostly Cloudy 65   24 28 W 18 gust 26 29.8 15
13:00 Mostly Cloudy 63 31 32 W 16 gust 28 29.8 15
12:00 Mostly Cloudy 61 34 32 W 25 gust 33 29.8 15
11:00 Partly Cloudy 60 41 37 W 20 gust 27 29.8 15
10:00 Mainly Sunny 55 47 35 WSW 20 29.8 15
9:00 Mostly Cloudy 47 64 35 WSW 5 29.8 15
8:00 Mostly Cloudy 40 90 37 E 4 29.8 15
7:00 Cloudy 38 84 33 S 2 29.8 15
6:00 Mostly Cloudy 37 86 33 calm 29.8 15
5:00 Mostly Cloudy 39 69 30 NW 3 29.9 15
4:00 Partly Cloudy 35 80 30 calm 29.9 15
3:00 Clear 32   95 31 calm 29.9 15
2:00 Clear 34 83 30 NNE 2 29.9 15
1:00 Clear 33 94 32 N 2 29.9 15
00:00 Clear 41 72 32 WNW 9 29.9 15
23 May 2015
23:00 Clear 41 74 34 WNW 9 29.9 15
22:00 Partly Cloudy 41 82 36 NW 7 29.9 15
21:00 Partly Cloudy 41 85 37 WNW 8 29.9 15
20:00 Mostly Cloudy 43 85 39 W 11 gust 17 29.9 15
19:00 Light Rain 44 88 41 W 13 gust 19 29.8 12
N/A Not available
↑ Highest temperature
↓ Lowest temperature

If you require additional historical weather information, please visit Climate Data Online.

What we are doing

Date modified: